FAJB

Johannesburg City Airport

Johannesburg, South Africa
METAR FAJB 231000Z AUTO 03003KT //// // ////// 21/M04 Q1032
Observed Flight Rules
Oct-23 @ 10:00 UTC (33 minutes ago)
Wind
30° at 3 knots
Temperatures Readings
Current 21°C / 70°F
Dewpoint -4°C / 25°F
Humidity 18%
Altimeter 30.47" Hg
Pressure 1032 hPa
Elevation 1626
METAR FAJB 231000Z AUTO 03003KT //// // ////// 21/M04 Q1032
Observed Flight Rules
Oct-23 @ 10:00 UTC
(33 minutes ago)
Wind
30° at 3 knots
Temperature Dewpoint
21°C / 70°F -4°C / 25°F
Humidity Altimeter Pressure
18% 30.47" Hg 1032 hPa